createdAt,value
2023-03-04T00:00:00.454Z,75
2023-03-04T00:15:00.453Z,75
2023-03-04T00:30:00.463Z,75
2023-03-04T00:45:00.508Z,75
2023-03-04T01:00:00.493Z,75
2023-03-04T01:15:00.437Z,76
2023-03-04T01:30:00.432Z,76
2023-03-04T01:45:00.457Z,76
2023-03-04T02:00:00.423Z,76
2023-03-04T02:15:00.718Z,76
2023-03-04T02:30:00.436Z,76
2023-03-04T02:45:00.476Z,77
2023-03-04T03:00:00.404Z,77
2023-03-04T03:15:00.403Z,77
2023-03-04T03:30:00.414Z,77
2023-03-04T03:45:00.543Z,78
2023-03-04T04:00:00.387Z,78
2023-03-04T04:15:00.377Z,78
2023-03-04T04:30:00.439Z,78
2023-03-04T04:45:00.461Z,78
2023-03-04T05:00:00.404Z,78
2023-03-04T05:15:00.409Z,78
2023-03-04T05:30:00.440Z,78
2023-03-04T05:45:00.458Z,78
2023-03-04T06:00:00.420Z,78
2023-03-04T06:15:00.389Z,79
2023-03-04T06:30:00.503Z,79
2023-03-04T06:45:00.411Z,80
2023-03-04T07:00:00.846Z,80
2023-03-04T07:15:00.391Z,81
2023-03-04T07:30:00.511Z,81
2023-03-04T07:45:00.441Z,82
2023-03-04T08:00:00.382Z,82
2023-03-04T08:15:00.374Z,82
2023-03-04T08:30:00.374Z,81
2023-03-04T08:45:00.610Z,80
2023-03-04T09:00:00.404Z,77
2023-03-04T09:15:11.731Z,72
2023-03-04T09:30:00.464Z,65
2023-03-04T09:45:00.456Z,65
2023-03-04T10:00:00.379Z,63
2023-03-04T10:15:00.428Z,64
2023-03-04T10:30:00.435Z,61
2023-03-04T10:45:00.442Z,59
2023-03-04T11:00:00.388Z,59
2023-03-04T11:15:00.381Z,57
2023-03-04T11:30:00.389Z,58
2023-03-04T11:45:00.465Z,56
2023-03-04T12:00:00.415Z,55
2023-03-04T12:15:00.404Z,54
2023-03-04T12:30:00.387Z,53
2023-03-04T12:45:00.496Z,49
2023-03-04T13:00:00.424Z,52
2023-03-04T13:15:00.399Z,51
2023-03-04T13:30:00.564Z,48
2023-03-04T13:45:00.451Z,50
2023-03-04T14:00:00.419Z,49
2023-03-04T14:15:00.484Z,50
2023-03-04T14:30:00.401Z,50
2023-03-04T14:45:00.461Z,49
2023-03-04T15:00:00.389Z,50
2023-03-04T15:15:00.451Z,50
2023-03-04T15:30:00.414Z,51
2023-03-04T15:45:00.443Z,51
2023-03-04T16:00:00.448Z,52
2023-03-04T16:15:00.529Z,53
2023-03-04T16:30:00.385Z,54
2023-03-04T16:45:00.427Z,55
2023-03-04T17:00:00.409Z,56
2023-03-04T17:15:00.421Z,56
2023-03-04T17:30:00.432Z,57
2023-03-04T17:45:00.421Z,57
2023-03-04T18:00:00.484Z,58
2023-03-04T18:15:00.397Z,59
2023-03-04T18:30:00.481Z,59
2023-03-04T18:45:00.440Z,60
2023-03-04T19:00:00.482Z,60
2023-03-04T19:15:00.411Z,60
2023-03-04T19:30:00.400Z,61
2023-03-04T19:45:00.800Z,61
2023-03-04T20:00:00.510Z,62
2023-03-04T20:15:00.486Z,62
2023-03-04T20:30:04.133Z,62
2023-03-04T20:45:00.456Z,62
2023-03-04T21:00:00.556Z,62
2023-03-04T21:15:00.438Z,64
2023-03-04T21:30:00.390Z,64
2023-03-04T21:45:00.465Z,64
2023-03-04T22:00:00.490Z,65
2023-03-04T22:15:00.440Z,66
2023-03-04T22:30:00.448Z,66
2023-03-04T22:45:00.464Z,66
2023-03-04T23:00:00.530Z,66
2023-03-04T23:15:00.626Z,66
2023-03-04T23:30:00.476Z,66
2023-03-04T23:45:00.419Z,68
